Time;durP1;ratioP1;P1;durP2;ratioP2;P2;SDS_P1;SDS_P2;PMS_P1;PMS_P2;Temp;Humidity;BMP_temperature;BMP_pressure;BME280_temperature;BME280_humidity;BME280_pressure;Samples;Min_cycle;Max_cycle;Signal;HPM_P1;HPM_P2
2022/12/09 00:00:30;;;;;;;4.38;0.82;;;22.10;48.10;;;;;;4123963;28;20049;-44
2022/12/09 00:02:53;;;;;;;6.43;1.15;;;22.10;48.00;;;;;;4120733;28;20090;-47
2022/12/09 00:05:16;;;;;;;2.15;0.77;;;22.20;47.90;;;;;;4121493;28;20077;-52
2022/12/09 00:07:38;;;;;;;7.30;1.30;;;22.20;48.00;;;;;;4121463;28;20398;-45
2022/12/09 00:10:01;;;;;;;8.45;1.10;;;22.20;48.10;;;;;;4124788;28;20053;-45
2022/12/09 00:12:23;;;;;;;4.45;1.27;;;22.20;48.00;;;;;;4122894;28;20042;-45
2022/12/09 00:14:46;;;;;;;7.78;1.58;;;22.30;47.80;;;;;;4121701;28;20486;-52
2022/12/09 00:17:08;;;;;;;4.75;1.25;;;22.20;47.90;;;;;;4123557;28;20468;-48
2022/12/09 00:19:33;;;;;;;4.53;1.17;;;22.20;47.70;;;;;;4122204;28;20048;-44
2022/12/09 00:21:55;;;;;;;2.70;1.02;;;22.30;47.70;;;;;;4121222;28;20034;-52
2022/12/09 00:24:18;;;;;;;3.65;0.90;;;22.30;47.60;;;;;;4120890;28;20039;-51
2022/12/09 00:26:41;;;;;;;4.00;0.80;;;22.30;47.60;;;;;;4121580;28;20057;-52
2022/12/09 00:29:04;;;;;;;4.50;1.03;;;22.30;47.50;;;;;;4121833;28;20038;-51
2022/12/09 00:31:30;;;;;;;2.00;0.80;;;22.30;47.50;;;;;;4123063;28;20069;-49
2022/12/09 00:33:56;;;;;;;4.22;0.80;;;22.30;47.40;;;;;;4121455;28;20498;-46
2022/12/09 00:36:21;;;;;;;2.60;0.90;;;22.30;47.20;;;;;;4123174;28;20030;-47
2022/12/09 00:38:44;;;;;;;3.67;1.27;;;22.30;47.30;;;;;;4121538;28;20058;-48
2022/12/09 00:41:06;;;;;;;3.50;1.00;;;22.40;47.20;;;;;;4123204;28;20046;-45
2022/12/09 00:43:29;;;;;;;5.82;0.90;;;22.40;46.90;;;;;;4119740;28;20046;-47
2022/12/09 00:45:51;;;;;;;6.03;1.27;;;22.40;46.80;;;;;;4120207;28;20097;-47
2022/12/09 00:48:14;;;;;;;2.15;0.80;;;22.40;46.40;;;;;;4120259;28;20035;-46
2022/12/09 00:50:36;;;;;;;4.50;1.35;;;22.30;46.20;;;;;;4120916;28;20506;-50
2022/12/09 00:52:59;;;;;;;5.10;1.45;;;22.40;46.00;;;;;;4122351;28;20042;-44
2022/12/09 00:55:21;;;;;;;8.45;1.67;;;22.40;45.10;;;;;;4124497;28;20077;-44
2022/12/09 00:57:44;;;;;;;11.98;1.73;;;22.40;45.30;;;;;;4124455;28;20060;-45
2022/12/09 01:00:07;;;;;;;7.63;1.00;;;22.40;45.60;;;;;;4124755;28;20050;-43
2022/12/09 01:02:30;;;;;;;10.13;1.85;;;22.50;45.60;;;;;;4126638;28;20038;-53
2022/12/09 01:04:52;;;;;;;4.15;0.90;;;22.50;45.20;;;;;;4124229;28;20081;-55
2022/12/09 01:07:15;;;;;;;2.30;1.10;;;22.50;45.10;;;;;;4124961;28;20033;-55
2022/12/09 01:09:37;;;;;;;2.75;0.80;;;22.50;44.60;;;;;;4122544;28;20051;-54
2022/12/09 01:12:00;;;;;;;3.05;0.82;;;22.50;43.80;;;;;;4126706;28;20043;-54
2022/12/09 01:14:22;;;;;;;2.40;1.02;;;22.50;43.90;;;;;;4124687;28;20518;-54
2022/12/09 01:16:45;;;;;;;1.88;0.68;;;22.50;43.80;;;;;;4123934;28;20157;-53
2022/12/09 01:19:11;;;;;;;2.25;0.70;;;22.40;43.80;;;;;;4124963;28;20522;-52
2022/12/09 01:21:35;;;;;;;1.73;0.80;;;22.40;43.80;;;;;;4124054;28;20121;-56
2022/12/09 01:23:58;;;;;;;1.75;0.93;;;22.40;43.70;;;;;;4121069;28;20512;-54
2022/12/09 01:26:20;;;;;;;2.15;0.82;;;22.40;44.00;;;;;;4122996;28;20089;-57
2022/12/09 01:28:43;;;;;;;1.38;0.60;;;22.40;43.70;;;;;;4123265;28;20073;-55
2022/12/09 01:31:10;;;;;;;2.30;0.70;;;22.40;44.10;;;;;;4123094;28;20042;-54
2022/12/09 01:33:32;;;;;;;1.80;0.70;;;22.40;43.70;;;;;;4126865;28;20319;-56
2022/12/09 01:35:55;;;;;;;1.98;0.77;;;22.40;43.30;;;;;;4125684;28;20556;-54
2022/12/09 01:38:18;;;;;;;1.95;0.70;;;22.40;43.60;;;;;;4120576;28;20062;-56
2022/12/09 01:40:46;;;;;;;2.63;1.02;;;22.40;43.40;;;;;;4125408;28;20050;-54
2022/12/09 01:43:22;;;;;;;5.93;1.48;;;22.40;44.10;;;;;;4125618;28;20053;-54
2022/12/09 01:45:45;;;;;;;2.78;1.10;;;22.30;43.70;;;;;;4125530;28;20038;-53
2022/12/09 01:48:13;;;;;;;3.05;1.10;;;22.30;43.60;;;;;;4125343;28;20045;-56
2022/12/09 01:50:38;;;;;;;1.92;0.88;;;22.30;43.90;;;;;;4124843;28;20173;-53
2022/12/09 01:53:00;;;;;;;1.83;0.70;;;22.30;43.80;;;;;;4126670;28;20264;-54
2022/12/09 01:55:24;;;;;;;2.47;0.90;;;22.30;44.00;;;;;;4118768;28;20042;-54
2022/12/09 01:57:47;;;;;;;4.47;1.05;;;22.30;44.10;;;;;;4124726;28;20038;-55
2022/12/09 02:00:10;;;;;;;3.72;1.20;;;22.30;43.80;;;;;;4130701;28;20033;-55
2022/12/09 02:02:37;;;;;;;1.95;1.08;;;22.30;43.70;;;;;;4125424;28;20038;-56
2022/12/09 02:05:00;;;;;;;1.52;0.93;;;22.30;43.70;;;;;;4123892;28;20035;-55
2022/12/09 02:07:22;;;;;;;2.90;1.00;;;22.20;43.70;;;;;;4123496;28;20049;-55
2022/12/09 02:09:45;;;;;;;3.05;1.20;;;22.20;43.80;;;;;;4123904;28;20406;-54
2022/12/09 02:12:46;;;;;;;3.30;1.20;;;22.30;43.70;;;;;;4129615;28;20533;-55
2022/12/09 02:15:20;;;;;;;2.25;0.93;;;22.30;43.90;;;;;;4118110;28;20053;-54
2022/12/09 02:17:46;;;;;;;3.95;1.00;;;22.30;44.20;;;;;;4128251;28;20046;-56
2022/12/09 02:20:20;;;;;;;3.35;1.13;;;22.30;43.90;;;;;;4120945;28;20046;-56
2022/12/09 02:22:48;;;;;;;1.63;0.80;;;22.20;43.60;;;;;;4126385;28;20044;-55
2022/12/09 02:25:25;;;;;;;2.13;1.00;;;22.20;43.80;;;;;;4123350;28;20045;-55
2022/12/09 02:28:14;;;;;;;2.15;1.00;;;22.20;44.20;;;;;;4123606;28;20037;-54
2022/12/09 02:30:49;;;;;;;3.33;1.25;;;22.20;43.90;;;;;;4126323;28;20038;-56
2022/12/09 02:33:39;;;;;;;3.42;1.10;;;22.20;44.00;;;;;;4122977;28;20195;-52
2022/12/09 02:36:15;;;;;;;2.38;0.98;;;22.20;43.80;;;;;;4123351;28;20050;-55
2022/12/09 02:38:42;;;;;;;3.05;0.85;;;22.30;43.80;;;;;;4124414;28;20141;-55
2022/12/09 02:41:13;;;;;;;3.92;1.10;;;22.30;44.10;;;;;;4125288;28;20121;-56
2022/12/09 02:43:39;;;;;;;3.00;1.10;;;22.30;44.10;;;;;;4124809;28;20093;-53
2022/12/09 02:46:04;;;;;;;2.25;0.90;;;22.30;44.00;;;;;;4122636;28;20049;-54
2022/12/09 02:48:32;;;;;;;1.70;0.73;;;22.20;43.60;;;;;;4122970;28;20030;-54
2022/12/09 02:50:57;;;;;;;3.33;1.23;;;22.20;43.80;;;;;;4122247;28;20506;-53
2022/12/09 02:53:22;;;;;;;2.67;0.80;;;22.30;44.00;;;;;;4128074;28;20121;-53
2022/12/09 02:55:47;;;;;;;4.40;1.02;;;22.20;44.00;;;;;;4122798;28;20402;-56
2022/12/09 02:58:10;;;;;;;2.47;1.02;;;22.30;43.80;;;;;;4123662;28;20046;-55
2022/12/09 03:00:32;;;;;;;1.98;0.93;;;22.30;44.10;;;;;;4124483;28;20042;-55
2022/12/09 03:02:58;;;;;;;3.65;1.00;;;22.30;44.00;;;;;;4123748;28;20085;-50
2022/12/09 03:05:33;;;;;;;5.38;1.27;;;22.30;44.90;;;;;;4119436;28;20395;-57
2022/12/09 03:08:14;;;;;;;1.67;0.90;;;22.40;45.10;;;;;;4124991;28;20045;-59
2022/12/09 03:10:39;;;;;;;3.60;0.90;;;22.40;45.20;;;;;;4123315;28;20504;-56
2022/12/09 03:13:17;;;;;;;3.50;1.13;;;22.50;45.50;;;;;;4121032;28;20034;-56
2022/12/09 03:15:45;;;;;;;2.35;1.10;;;22.60;45.50;;;;;;4123136;28;20049;-50
2022/12/09 03:18:14;;;;;;;3.25;1.00;;;22.60;44.40;;;;;;4124203;28;21341;-54
2022/12/09 03:20:39;;;;;;;7.07;1.20;;;22.60;43.90;;;;;;4122199;28;20049;-49
2022/12/09 03:23:04;;;;;;;3.10;1.25;;;22.60;44.20;;;;;;4121935;28;20046;-52
2022/12/09 03:25:50;;;;;;;2.67;0.95;;;22.70;44.50;;;;;;4122106;28;20038;-52
2022/12/09 03:28:19;;;;;;;6.93;1.42;;;22.70;44.40;;;;;;4120375;28;20667;-53
2022/12/09 03:30:44;;;;;;;3.47;1.08;;;22.70;44.40;;;;;;4121600;28;20077;-50
2022/12/09 03:33:08;;;;;;;3.30;0.80;;;22.70;44.60;;;;;;4121837;28;20034;-56
2022/12/09 03:35:38;;;;;;;4.10;1.35;;;22.70;44.80;;;;;;4122262;28;20069;-51
2022/12/09 03:38:04;;;;;;;4.40;1.25;;;22.80;44.80;;;;;;4121954;28;20060;-48
2022/12/09 03:40:29;;;;;;;6.80;1.50;;;22.80;45.00;;;;;;4124791;28;20045;-59
2022/12/09 03:43:01;;;;;;;4.25;1.90;;;22.90;45.10;;;;;;4120277;28;20038;-55
2022/12/09 03:45:23;;;;;;;8.05;3.22;;;23.00;44.30;;;;;;4120718;28;20124;-48
2022/12/09 03:47:46;;;;;;;7.57;5.03;;;23.00;44.40;;;;;;4119070;28;20045;-54
2022/12/09 03:50:09;;;;;;;9.52;5.32;;;23.00;45.50;;;;;;4117981;28;20034;-54
2022/12/09 03:52:36;;;;;;;6.43;5.33;;;23.10;45.10;;;;;;4118017;28;20046;-52
2022/12/09 03:55:04;;;;;;;5.78;5.18;;;23.20;45.20;;;;;;4124426;28;20136;-52
2022/12/09 03:57:28;;;;;;;5.63;5.13;;;23.20;45.50;;;;;;4117842;28;20053;-55
2022/12/09 03:59:56;;;;;;;;;;;23.30;45.00;;;;;;4121445;28;20141;-53
2022/12/09 04:02:19;;;;;;;7.30;4.82;;;23.30;44.60;;;;;;4117413;28;19925;-53
2022/12/09 04:04:42;;;;;;;13.40;4.90;;;23.40;45.10;;;;;;4116104;28;20836;-57
2022/12/09 04:07:05;;;;;;;7.38;4.03;;;23.50;44.50;;;;;;4118075;28;20041;-56
2022/12/09 04:09:27;;;;;;;5.72;3.28;;;23.50;44.30;;;;;;4115704;28;20042;-48
2022/12/09 04:11:50;;;;;;;7.95;3.58;;;23.50;44.10;;;;;;4118693;28;20038;-52
2022/12/09 04:14:12;;;;;;;8.77;3.85;;;23.50;43.80;;;;;;4116757;28;20089;-53
2022/12/09 04:16:36;;;;;;;5.72;3.33;;;23.50;44.00;;;;;;4119908;28;20205;-58
2022/12/09 04:18:58;;;;;;;;;;;23.60;43.80;;;;;;4116720;28;20046;-59
2022/12/09 04:21:21;;;;;;;6.70;3.75;;;23.60;43.70;;;;;;4115158;28;20000;-56
2022/12/09 04:23:43;;;;;;;7.03;3.70;;;23.60;44.20;;;;;;4116167;28;20522;-47
2022/12/09 04:26:07;;;;;;;5.20;3.13;;;23.80;44.40;;;;;;4119019;28;20030;-52
2022/12/09 04:28:30;;;;;;;5.20;3.00;;;23.80;44.60;;;;;;4113934;28;20282;-57
2022/12/09 04:30:53;;;;;;;4.47;2.70;;;23.90;44.50;;;;;;4120612;28;20078;-55
2022/12/09 04:33:15;;;;;;;3.50;2.45;;;24.00;44.50;;;;;;4122169;28;20164;-54
2022/12/09 04:35:38;;;;;;;5.13;2.45;;;24.10;44.50;;;;;;4119558;28;20050;-48
2022/12/09 04:38:00;;;;;;;3.78;2.00;;;24.10;44.10;;;;;;4120576;28;20238;-48
2022/12/09 04:40:23;;;;;;;3.60;1.98;;;24.20;44.00;;;;;;4119033;28;20791;-53
2022/12/09 04:42:46;;;;;;;5.63;2.15;;;24.20;43.90;;;;;;4120966;28;20034;-46
2022/12/09 04:45:09;;;;;;;3.75;1.55;;;24.30;43.80;;;;;;4119755;28;20567;-50
2022/12/09 04:47:33;;;;;;;3.63;1.77;;;24.40;43.90;;;;;;4121731;28;20132;-52
2022/12/09 04:49:55;;;;;;;1.83;1.38;;;24.50;43.70;;;;;;4118082;28;20292;-53
2022/12/09 04:52:18;;;;;;;2.20;1.10;;;24.50;43.40;;;;;;4121207;28;20289;-53
2022/12/09 04:54:41;;;;;;;2.50;1.23;;;24.60;43.50;;;;;;4122209;28;20085;-51
2022/12/09 04:57:03;;;;;;;2.28;1.30;;;24.70;43.70;;;;;;4122322;28;20073;-46
2022/12/09 04:59:27;;;;;;;2.70;1.35;;;24.70;43.40;;;;;;4115562;28;20548;-58
2022/12/09 05:01:49;;;;;;;;;;;24.80;43.30;;;;;;4123028;28;20049;-59
2022/12/09 05:04:12;;;;;;;3.90;1.75;;;24.90;43.20;;;;;;4122433;28;19913;-59
2022/12/09 05:06:34;;;;;;;6.13;1.58;;;24.90;43.10;;;;;;4120168;28;20145;-61
2022/12/09 05:08:57;;;;;;;9.63;1.60;;;25.00;43.10;;;;;;4118628;28;20074;-63
2022/12/09 05:11:22;;;;;;;4.07;1.20;;;25.00;43.00;;;;;;4118740;28;20124;-60
2022/12/09 05:13:45;;;;;;;2.13;1.00;;;25.00;42.60;;;;;;4116907;28;20577;-61
2022/12/09 05:16:11;;;;;;;5.03;1.10;;;25.10;42.70;;;;;;4118668;28;20049;-60
2022/12/09 05:18:33;;;;;;;5.18;1.25;;;25.10;42.60;;;;;;4119747;28;20043;-62
2022/12/09 05:20:56;;;;;;;3.65;0.90;;;25.20;42.40;;;;;;4118292;28;20081;-56
2022/12/09 05:23:18;;;;;;;7.35;1.75;;;25.20;42.40;;;;;;4117578;28;20057;-53
2022/12/09 05:25:41;;;;;;;5.85;1.27;;;25.40;42.30;;;;;;4119656;28;20046;-57
2022/12/09 05:28:03;;;;;;;5.93;1.45;;;25.40;42.00;;;;;;4120911;28;20495;-55
2022/12/09 05:30:26;;;;;;;2.53;1.13;;;25.40;41.80;;;;;;4124547;28;20042;-59
2022/12/09 05:32:49;;;;;;;4.88;1.10;;;25.40;41.80;;;;;;4121320;28;20532;-53
2022/12/09 05:35:11;;;;;;;4.20;1.10;;;25.50;41.80;;;;;;4124379;28;20108;-56
2022/12/09 05:37:34;;;;;;;5.55;1.00;;;25.60;40.50;;;;;;4122057;28;20034;-58
2022/12/09 05:39:57;;;;;;;4.03;1.10;;;25.50;39.90;;;;;;4121372;28;20057;-57
2022/12/09 05:42:19;;;;;;;4.10;1.40;;;25.50;39.90;;;;;;4117714;28;20075;-58
2022/12/09 05:44:42;;;;;;;2.40;0.90;;;25.50;40.10;;;;;;4115122;28;20069;-57
2022/12/09 05:47:04;;;;;;;3.45;1.30;;;25.40;39.70;;;;;;4122146;28;20495;-57
2022/12/09 05:49:28;;;;;;;2.17;1.05;;;25.40;39.80;;;;;;4123195;28;20040;-57
2022/12/09 05:51:50;;;;;;;2.42;0.90;;;25.40;40.10;;;;;;4126649;28;20093;-58
2022/12/09 05:54:13;;;;;;;3.15;0.90;;;25.40;39.80;;;;;;4118726;28;20072;-58
2022/12/09 05:56:35;;;;;;;2.25;0.82;;;25.40;39.80;;;;;;4118327;28;20500;-56
2022/12/09 05:58:58;;;;;;;3.00;1.23;;;25.40;40.10;;;;;;4114206;28;20090;-58
2022/12/09 06:01:22;;;;;;;6.30;1.00;;;25.40;40.50;;;;;;4118976;28;20422;-58
2022/12/09 06:03:47;;;;;;;5.15;1.35;;;25.40;40.50;;;;;;4121362;28;21175;-51
2022/12/09 06:06:13;;;;;;;4.25;0.98;;;25.40;41.70;;;;;;4119192;28;20121;-47
2022/12/09 06:08:36;;;;;;;7.45;1.25;;;25.40;42.10;;;;;;4109274;28;20103;-55
2022/12/09 06:10:59;;;;;;;4.05;1.05;;;25.50;42.50;;;;;;4106904;28;20412;-50
2022/12/09 06:13:21;;;;;;;3.63;0.98;;;25.50;42.60;;;;;;4112490;28;20042;-48
2022/12/09 06:15:44;;;;;;;4.35;1.30;;;25.60;42.50;;;;;;4121006;28;20053;-47
2022/12/09 06:18:07;;;;;;;5.43;1.38;;;25.60;42.40;;;;;;4104966;28;21326;-48
2022/12/09 06:20:29;;;;;;;6.15;1.55;;;25.60;42.20;;;;;;4111764;28;20490;-49
2022/12/09 06:22:52;;;;;;;4.00;1.17;;;25.60;42.00;;;;;;4110968;28;20061;-49
2022/12/09 06:25:15;;;;;;;2.88;1.10;;;25.50;42.20;;;;;;4119130;28;20851;-49
2022/12/09 06:27:37;;;;;;;3.92;1.15;;;25.50;42.10;;;;;;4116914;28;20042;-53
2022/12/09 06:30:01;;;;;;;4.47;1.30;;;25.60;42.20;;;;;;4113005;28;20085;-45
2022/12/09 06:32:24;;;;;;;3.38;1.13;;;25.60;42.20;;;;;;4118006;28;20039;-55
2022/12/09 06:34:46;;;;;;;2.92;0.90;;;25.60;42.20;;;;;;4112382;28;20417;-47
2022/12/09 06:37:09;;;;;;;6.05;1.50;;;25.60;42.20;;;;;;4122187;28;20034;-48
2022/12/09 06:39:32;;;;;;;4.78;1.17;;;25.60;42.00;;;;;;4119999;28;20533;-52
2022/12/09 06:41:54;;;;;;;2.22;0.95;;;25.60;42.20;;;;;;4104326;28;20254;-47
2022/12/09 06:44:17;;;;;;;3.22;0.90;;;25.60;42.10;;;;;;4111549;28;20069;-45
2022/12/09 06:46:39;;;;;;;2.03;0.73;;;25.60;42.20;;;;;;4121612;28;20537;-53
2022/12/09 06:49:02;;;;;;;2.53;1.05;;;25.50;42.10;;;;;;4121999;28;20057;-46
2022/12/09 06:51:26;;;;;;;3.83;0.90;;;25.50;42.20;;;;;;4112184;28;20548;-49
2022/12/09 06:53:48;;;;;;;2.63;1.35;;;25.50;42.40;;;;;;4119926;28;20038;-53
2022/12/09 06:56:12;;;;;;;2.67;1.30;;;25.50;42.60;;;;;;4122425;28;20053;-54
2022/12/09 06:58:35;;;;;;;4.93;1.40;;;25.50;42.60;;;;;;4117188;28;20065;-49
2022/12/09 07:01:12;;;;;;;6.53;1.77;;;25.50;41.70;;;;;;4121969;28;20046;-55
2022/12/09 07:03:34;;;;;;;16.80;6.60;;;25.40;41.90;;;;;;4123174;28;20386;-52
2022/12/09 07:05:57;;;;;;;26.33;12.68;;;25.20;42.10;;;;;;4119403;28;20184;-51
2022/12/09 07:08:19;;;;;;;23.98;11.35;;;25.10;42.40;;;;;;4121885;28;20049;-54
2022/12/09 07:10:44;;;;;;;21.75;9.98;;;25.00;42.80;;;;;;4121886;28;20521;-53
2022/12/09 07:13:07;;;;;;;21.50;9.02;;;24.90;42.90;;;;;;4122168;28;20418;-51
2022/12/09 07:15:29;;;;;;;17.42;7.65;;;24.80;42.90;;;;;;4102456;28;20133;-49
2022/12/09 07:17:52;;;;;;;15.13;6.72;;;24.80;43.20;;;;;;4119208;28;20042;-50
2022/12/09 07:20:16;;;;;;;13.18;6.65;;;24.80;43.30;;;;;;4122623;28;20084;-50
2022/12/09 07:22:38;;;;;;;13.07;5.70;;;24.90;43.40;;;;;;4119502;28;20056;-52
2022/12/09 07:25:01;;;;;;;12.32;5.65;;;24.90;43.40;;;;;;4124877;28;20034;-48
2022/12/09 07:27:23;;;;;;;8.27;4.35;;;25.00;43.10;;;;;;4121061;28;20925;-52
2022/12/09 07:29:46;;;;;;;8.55;3.92;;;25.00;43.20;;;;;;4121777;28;20490;-43
2022/12/09 07:32:10;;;;;;;8.10;3.92;;;25.00;43.30;;;;;;4121804;28;20038;-46
2022/12/09 07:34:32;;;;;;;;;;;25.00;44.10;;;;;;4124807;28;20564;-45
2022/12/09 07:36:54;;;;;;;6.63;2.83;;;25.00;43.50;;;;;;4121993;28;19914;-43
2022/12/09 07:39:18;;;;;;;6.90;2.65;;;25.00;43.50;;;;;;4121037;28;20054;-41
2022/12/09 07:41:41;;;;;;;5.03;2.30;;;25.00;43.50;;;;;;4123126;28;20540;-45
2022/12/09 07:44:04;;;;;;;4.50;2.20;;;25.00;43.60;;;;;;4121081;28;20038;-44
2022/12/09 07:46:27;;;;;;;5.95;2.08;;;25.00;43.50;;;;;;4119942;28;20093;-43
2022/12/09 07:48:49;;;;;;;4.90;2.10;;;25.00;43.60;;;;;;4122265;28;20116;-45
2022/12/09 07:51:12;;;;;;;5.50;2.00;;;25.00;43.60;;;;;;4120567;28;20502;-46
2022/12/09 07:53:36;;;;;;;5.35;1.90;;;25.00;43.20;;;;;;4121595;28;20049;-47
2022/12/09 07:56:07;;;;;;;3.97;1.20;;;25.00;43.00;;;;;;4119972;28;20069;-44
2022/12/09 07:58:29;;;;;;;9.20;1.25;;;25.00;43.00;;;;;;4121193;28;20137;-49
2022/12/09 08:00:52;;;;;;;4.68;1.83;;;24.90;42.90;;;;;;4121979;28;20037;-49
2022/12/09 08:03:14;;;;;;;3.30;1.15;;;24.80;42.90;;;;;;4121962;28;20050;-47
2022/12/09 08:05:37;;;;;;;4.40;1.55;;;24.80;43.10;;;;;;4120591;28;20504;-49
2022/12/09 08:07:59;;;;;;;4.68;1.20;;;24.80;43.30;;;;;;4122158;28;20052;-45
2022/12/09 08:10:22;;;;;;;3.55;1.20;;;24.80;43.30;;;;;;4118848;28;20472;-48
2022/12/09 08:12:45;;;;;;;2.55;0.90;;;24.80;43.30;;;;;;4120997;28;20049;-44
2022/12/09 08:15:08;;;;;;;3.17;1.13;;;24.70;43.30;;;;;;4118875;28;20137;-42
2022/12/09 08:17:32;;;;;;;3.50;1.10;;;24.70;43.30;;;;;;4120451;28;20038;-45
2022/12/09 08:19:54;;;;;;;3.00;0.82;;;24.70;43.40;;;;;;4124053;28;20311;-46
2022/12/09 08:22:17;;;;;;;2.55;1.13;;;24.70;43.40;;;;;;4123105;28;20027;-45
2022/12/09 08:24:39;;;;;;;4.03;1.17;;;24.60;43.40;;;;;;4123978;28;20061;-46
2022/12/09 08:27:02;;;;;;;0.55;0.40;;;24.60;43.40;;;;;;4122764;28;20078;-48
2022/12/09 08:29:25;;;;;;;2.05;1.30;;;24.60;43.40;;;;;;4122227;28;20033;-51
2022/12/09 08:31:47;;;;;;;4.07;1.20;;;24.60;43.40;;;;;;4125310;28;20065;-48
2022/12/09 08:34:10;;;;;;;3.63;0.98;;;24.60;43.50;;;;;;4121250;28;20100;-49
2022/12/09 08:36:33;;;;;;;1.13;0.60;;;24.60;43.50;;;;;;4121668;28;20038;-48
2022/12/09 08:38:59;;;;;;;1.95;0.93;;;24.60;43.60;;;;;;4117189;28;20060;-50
2022/12/09 08:41:34;;;;;;;1.63;0.77;;;24.60;43.50;;;;;;4124491;28;20161;-46
2022/12/09 08:43:56;;;;;;;;;;;24.60;43.60;;;;;;4129041;28;20394;-52
2022/12/09 08:46:19;;;;;;;4.50;1.00;;;24.50;43.60;;;;;;4119221;28;19913;-45
2022/12/09 08:48:42;;;;;;;2.13;0.98;;;24.50;43.60;;;;;;4122234;28;20104;-46
2022/12/09 08:51:06;;;;;;;1.25;0.55;;;24.50;43.60;;;;;;4121372;28;20617;-48
2022/12/09 08:53:29;;;;;;;3.40;1.02;;;24.40;43.60;;;;;;4123096;28;20108;-47
2022/12/09 08:55:51;;;;;;;2.58;0.82;;;24.40;43.70;;;;;;4120909;28;20050;-47
2022/12/09 08:58:14;;;;;;;3.05;0.85;;;24.40;43.70;;;;;;4120036;28;20375;-47
2022/12/09 09:00:36;;;;;;;2.17;0.80;;;24.40;43.70;;;;;;4122015;28;20042;-52
2022/12/09 09:02:59;;;;;;;2.33;0.90;;;24.30;43.70;;;;;;4119008;28;20517;-45
2022/12/09 09:05:22;;;;;;;7.10;1.60;;;24.30;43.90;;;;;;4122067;28;20133;-53
2022/12/09 09:07:45;;;;;;;3.28;0.90;;;24.30;44.10;;;;;;4120666;28;20042;-52
2022/12/09 09:10:08;;;;;;;6.50;1.27;;;24.30;44.30;;;;;;4117549;28;20109;-46
2022/12/09 09:12:30;;;;;;;3.38;1.33;;;24.30;44.30;;;;;;4121709;28;20042;-44
2022/12/09 09:14:53;;;;;;;4.85;1.00;;;24.40;44.10;;;;;;4121932;28;20050;-45
2022/12/09 09:17:16;;;;;;;3.17;1.15;;;24.40;44.10;;;;;;4121132;28;20038;-46
2022/12/09 09:19:38;;;;;;;3.58;1.10;;;24.30;44.00;;;;;;4125526;28;20047;-44
2022/12/09 09:22:01;;;;;;;2.42;0.95;;;24.30;43.90;;;;;;4126587;28;20406;-46
2022/12/09 09:24:25;;;;;;;2.78;0.88;;;24.30;43.90;;;;;;4129682;28;20030;-44
2022/12/09 09:26:47;;;;;;;;;;;24.30;43.90;;;;;;4126769;28;20038;-46
2022/12/09 09:29:14;;;;;;;4.43;0.68;;;24.30;43.80;;;;;;4124766;28;19910;-45
2022/12/09 09:31:37;;;;;;;2.20;0.82;;;24.20;43.90;;;;;;4125870;28;20129;-46
2022/12/09 09:33:59;;;;;;;2.90;1.08;;;24.20;43.90;;;;;;4120832;28;20232;-45
2022/12/09 09:36:24;;;;;;;2.83;0.93;;;24.20;44.00;;;;;;4126518;28;20477;-47
2022/12/09 09:38:48;;;;;;;4.10;1.63;;;24.20;44.20;;;;;;4122642;28;20455;-48
2022/12/09 09:41:31;;;;;;;4.05;1.48;;;24.20;44.00;;;;;;4121798;28;20046;-47
2022/12/09 09:43:55;;;;;;;1.90;0.80;;;24.10;44.00;;;;;;4120261;28;20189;-47
2022/12/09 09:46:40;;;;;;;1.80;0.77;;;24.10;44.00;;;;;;4125115;28;20042;-46
2022/12/09 09:49:03;;;;;;;;;;;24.10;44.20;;;;;;4124294;28;20536;-48
2022/12/09 09:51:27;;;;;;;2.45;0.85;;;24.10;44.40;;;;;;4124908;28;20349;-51
2022/12/09 09:53:50;;;;;;;;;;;24.00;44.30;;;;;;4127976;28;20078;-46
2022/12/09 09:56:34;;;;;;;2.70;0.90;;;24.00;44.40;;;;;;4113651;28;19920;-44
2022/12/09 09:59:25;;;;;;;2.33;0.85;;;24.00;44.60;;;;;;4118959;28;20394;-47
2022/12/09 10:02:07;;;;;;;3.78;1.08;;;24.00;44.80;;;;;;4121111;28;20041;-45
2022/12/09 10:04:38;;;;;;;2.70;0.82;;;24.00;44.90;;;;;;4120437;28;20573;-46
2022/12/09 10:07:17;;;;;;;1.95;0.90;;;23.90;45.00;;;;;;4120201;28;20072;-52
2022/12/09 10:09:42;;;;;;;1.88;0.98;;;23.90;45.30;;;;;;4118028;28;20095;-48
2022/12/09 10:12:46;;;;;;;3.17;1.10;;;23.90;45.20;;;;;;4124499;28;20546;-48
2022/12/09 10:15:41;;;;;;;2.35;1.00;;;23.80;45.10;;;;;;4119528;28;20046;-48
2022/12/09 10:18:53;;;;;;;3.22;1.30;;;23.80;45.20;;;;;;4118177;28;20033;-50
2022/12/09 10:21:20;;;;;;;2.35;0.63;;;23.80;45.60;;;;;;4100473;28;20736;-48
2022/12/09 10:23:43;;;;;;;3.00;0.90;;;23.80;45.80;;;;;;4106290;28;20510;-51
2022/12/09 10:26:10;;;;;;;2.80;1.10;;;23.80;45.90;;;;;;4115564;28;20041;-50
2022/12/09 10:28:47;;;;;;;2.65;0.95;;;23.80;46.00;;;;;;4124851;28;20506;-49
2022/12/09 10:31:11;;;;;;;2.17;0.93;;;23.80;46.00;;;;;;4122719;28;20109;-50
2022/12/09 10:33:37;;;;;;;5.03;1.20;;;23.80;46.10;;;;;;4124010;28;20569;-47
2022/12/09 10:36:01;;;;;;;2.13;0.88;;;23.80;46.10;;;;;;4123592;28;20383;-50
2022/12/09 10:38:25;;;;;;;2.92;0.80;;;23.80;46.10;;;;;;4120384;28;20058;-51
2022/12/09 10:40:53;;;;;;;4.18;1.15;;;23.80;46.10;;;;;;4120567;28;20081;-47
2022/12/09 10:43:36;;;;;;;2.50;1.00;;;23.80;46.10;;;;;;4128382;28;20100;-49
2022/12/09 10:46:00;;;;;;;4.03;0.98;;;23.80;46.20;;;;;;4115844;28;20034;-49
2022/12/09 10:48:29;;;;;;;3.60;1.00;;;23.80;46.10;;;;;;4118824;28;20046;-47
2022/12/09 10:50:56;;;;;;;3.30;0.90;;;23.80;46.20;;;;;;4118513;28;20054;-53
2022/12/09 10:53:19;;;;;;;2.13;0.82;;;23.90;46.40;;;;;;4118110;28;20725;-46
2022/12/09 10:55:49;;;;;;;2.20;1.10;;;23.90;46.20;;;;;;4118565;28;20054;-53
2022/12/09 10:58:14;;;;;;;5.43;1.27;;;23.90;46.20;;;;;;4122485;28;20688;-51
2022/12/09 11:00:37;;;;;;;5.28;1.20;;;23.90;46.20;;;;;;4121203;28;20030;-48
2022/12/09 11:02:59;;;;;;;1.90;0.93;;;23.90;46.30;;;;;;4123638;28;20046;-47
2022/12/09 11:05:29;;;;;;;3.72;1.05;;;23.90;46.20;;;;;;4123446;28;20036;-49
2022/12/09 11:07:53;;;;;;;4.15;1.17;;;23.90;46.20;;;;;;4123926;28;20492;-47
2022/12/09 11:10:22;;;;;;;;;;;23.90;46.30;;;;;;4121536;28;20089;-52
2022/12/09 11:12:45;;;;;;;3.67;1.20;;;23.90;46.20;;;;;;4120611;28;19961;-51
2022/12/09 11:15:26;;;;;;;15.55;2.47;;;23.90;46.30;;;;;;4123222;28;20050;-48
2022/12/09 11:18:34;;;;;;;25.88;2.92;;;23.90;46.20;;;;;;4121810;28;20062;-49
2022/12/09 11:21:04;;;;;;;14.80;2.35;;;23.90;46.20;;;;;;4119511;28;20057;-50
2022/12/09 11:23:28;;;;;;;10.57;2.60;;;23.90;46.30;;;;;;4120610;28;20442;-54
2022/12/09 11:26:26;;;;;;;7.40;2.13;;;23.90;46.20;;;;;;4120296;28;20042;-47
2022/12/09 11:29:02;;;;;;;6.13;1.25;;;23.90;46.10;;;;;;4120203;28;20106;-52
2022/12/09 11:31:27;;;;;;;4.57;1.55;;;23.90;46.00;;;;;;4124564;28;20330;-49
2022/12/09 11:33:58;;;;;;;8.35;1.42;;;23.90;46.00;;;;;;4120933;28;20038;-54
2022/12/09 11:36:36;;;;;;;7.90;1.40;;;23.90;46.00;;;;;;4121337;28;20050;-52
2022/12/09 11:39:19;;;;;;;2.38;1.10;;;23.90;46.10;;;;;;4131873;28;20125;-51
2022/12/09 11:44:32;;;;;;;5.40;1.48;;;23.90;46.10;;;;;;4119913;28;20044;-55
2022/12/09 11:47:07;;;;;;;7.00;1.20;;;23.90;46.00;;;;;;4124311;28;20034;-46
2022/12/09 11:49:35;;;;;;;6.55;1.38;;;23.90;46.00;;;;;;4123065;28;20379;-48
2022/12/09 11:52:04;;;;;;;5.43;1.30;;;23.90;46.60;;;;;;4120860;28;20456;-52
2022/12/09 11:54:48;;;;;;;5.15;1.60;;;23.90;45.80;;;;;;4120690;28;20129;-53
2022/12/09 11:57:27;;;;;;;6.82;1.60;;;23.90;45.90;;;;;;4123118;28;20031;-46
2022/12/09 11:59:56;;;;;;;17.08;3.40;;;23.90;45.80;;;;;;4113746;28;20109;-54
2022/12/09 12:02:58;;;;;;;9.65;2.25;;;23.90;45.90;;;;;;4121090;28;20070;-50
2022/12/09 12:05:24;;;;;;;8.68;2.00;;;23.90;45.80;;;;;;4108787;28;20045;-53
2022/12/09 12:08:16;;;;;;;8.48;1.50;;;23.90;46.50;;;;;;4119942;28;20920;-56
2022/12/09 12:11:03;;;;;;;8.85;1.45;;;23.80;45.70;;;;;;4123248;28;20068;-50
2022/12/09 12:13:41;;;;;;;9.82;1.88;;;23.80;45.70;;;;;;4117707;28;20054;-47
2022/12/09 12:16:45;;;;;;;4.72;1.55;;;23.80;45.70;;;;;;4120799;28;20125;-50
2022/12/09 12:19:34;;;;;;;3.17;1.00;;;23.80;45.80;;;;;;4120331;28;20463;-45
2022/12/09 12:22:17;;;;;;;5.03;1.10;;;23.80;45.80;;;;;;4124286;28;20030;-48
2022/12/09 12:24:59;;;;;;;2.95;0.98;;;23.70;45.90;;;;;;4117063;28;20050;-47
2022/12/09 12:27:41;;;;;;;2.45;0.90;;;23.70;45.80;;;;;;4122643;28;20449;-43
2022/12/09 12:30:09;;;;;;;6.15;1.00;;;23.80;46.00;;;;;;4121741;28;20038;-48
2022/12/09 12:32:32;;;;;;;1.80;0.70;;;23.70;45.90;;;;;;4120406;28;20473;-51
2022/12/09 12:35:15;;;;;;;4.72;1.10;;;23.70;46.00;;;;;;4123237;28;20046;-51
2022/12/09 12:37:51;;;;;;;1.92;0.90;;;23.60;46.00;;;;;;4118754;28;20034;-51
2022/12/09 12:40:29;;;;;;;2.83;0.77;;;23.70;46.10;;;;;;4121186;28;20034;-44
2022/12/09 12:48:48;;;;;;;4.43;1.40;;;23.60;46.10;;;;;;4119290;28;20140;-49
2022/12/09 12:51:56;;;;;;;2.90;0.80;;;23.60;46.10;;;;;;4113217;28;20168;-52
2022/12/09 12:54:35;;;;;;;3.58;0.90;;;23.60;46.30;;;;;;4122887;28;20042;-48